sensor_id;sensor_type;location;lat;lon;timestamp;pressure;altitude;pressure_sealevel;temperature;humidity
51123;BME280;37162;41.724;13.346;2023-12-29T00:00:54;97589.84;;;18.11;69.43
51123;BME280;37162;41.724;13.346;2023-12-29T00:03:20;97587.97;;;18.12;69.29
51123;BME280;37162;41.724;13.346;2023-12-29T00:05:45;97581.78;;;18.11;69.28
51123;BME280;37162;41.724;13.346;2023-12-29T00:08:11;97576.41;;;18.11;69.45
51123;BME280;37162;41.724;13.346;2023-12-29T00:10:36;97579.91;;;18.12;69.63
51123;BME280;37162;41.724;13.346;2023-12-29T00:13:01;97574.53;;;18.12;69.98
51123;BME280;37162;41.724;13.346;2023-12-29T00:15:27;97577.00;;;18.13;70.14
51123;BME280;37162;41.724;13.346;2023-12-29T00:17:52;97575.94;;;18.14;70.31
51123;BME280;37162;41.724;13.346;2023-12-29T00:20:18;97576.75;;;18.15;70.43
51123;BME280;37162;41.724;13.346;2023-12-29T00:22:43;97584.81;;;18.15;70.18
51123;BME280;37162;41.724;13.346;2023-12-29T00:25:09;97572.44;;;18.14;69.82
51123;BME280;37162;41.724;13.346;2023-12-29T00:27:35;97559.66;;;18.09;69.48
51123;BME280;37162;41.724;13.346;2023-12-29T00:30:02;97562.72;;;18.13;69.30
51123;BME280;37162;41.724;13.346;2023-12-29T00:32:27;97562.72;;;18.13;69.36
51123;BME280;37162;41.724;13.346;2023-12-29T00:34:53;97564.59;;;18.12;69.16
51123;BME280;37162;41.724;13.346;2023-12-29T00:37:18;97565.41;;;18.13;69.20
51123;BME280;37162;41.724;13.346;2023-12-29T00:39:43;97560.25;;;18.11;69.08
51123;BME280;37162;41.724;13.346;2023-12-29T00:42:09;97561.09;;;18.12;69.11
51123;BME280;37162;41.724;13.346;2023-12-29T00:44:34;97565.66;;;18.11;69.10
51123;BME280;37162;41.724;13.346;2023-12-29T00:47:00;97562.94;;;18.11;69.11
51123;BME280;37162;41.724;13.346;2023-12-29T00:49:26;97556.56;;;18.06;69.03
51123;BME280;37162;41.724;13.346;2023-12-29T00:51:52;97564.63;;;18.06;69.20
51123;BME280;37162;41.724;13.346;2023-12-29T00:54:17;97562.09;;;18.11;69.05
51123;BME280;37162;41.724;13.346;2023-12-29T00:56:49;97558.59;;;18.10;68.94
51123;BME280;37162;41.724;13.346;2023-12-29T00:59:15;97564.19;;;18.09;69.13
51123;BME280;37162;41.724;13.346;2023-12-29T01:01:41;97549.38;;;18.00;69.00
51123;BME280;37162;41.724;13.346;2023-12-29T01:04:06;97559.88;;;18.08;69.27
51123;BME280;37162;41.724;13.346;2023-12-29T01:06:31;97558.25;;;18.07;69.62
51123;BME280;37162;41.724;13.346;2023-12-29T01:08:57;97556.38;;;18.07;69.79
51123;BME280;37162;41.724;13.346;2023-12-29T01:11:22;97557.78;;;18.10;70.10
51123;BME280;37162;41.724;13.346;2023-12-29T01:13:48;97551.34;;;18.11;70.25
51123;BME280;37162;41.724;13.346;2023-12-29T01:16:13;97543.50;;;18.09;70.27
51123;BME280;37162;41.724;13.346;2023-12-29T01:18:39;97545.81;;;18.06;70.23
51123;BME280;37162;41.724;13.346;2023-12-29T01:21:04;97557.78;;;18.10;69.94
51123;BME280;37162;41.724;13.346;2023-12-29T01:23:30;97549.72;;;18.10;69.56
51123;BME280;37162;41.724;13.346;2023-12-29T01:25:55;97533.50;;;17.98;69.28
51123;BME280;37162;41.724;13.346;2023-12-29T01:28:20;97551.56;;;18.09;69.13
51123;BME280;37162;41.724;13.346;2023-12-29T01:30:46;97556.13;;;18.09;69.16
51123;BME280;37162;41.724;13.346;2023-12-29T01:33:12;97563.38;;;18.08;69.21
51123;BME280;37162;41.724;13.346;2023-12-29T01:35:38;97563.38;;;18.08;69.11
51123;BME280;37162;41.724;13.346;2023-12-29T01:38:04;97560.69;;;18.08;69.09
51123;BME280;37162;41.724;13.346;2023-12-29T01:40:29;97559.06;;;18.07;69.16
51123;BME280;37162;41.724;13.346;2023-12-29T01:42:55;97556.38;;;18.07;69.03
51123;BME280;37162;41.724;13.346;2023-12-29T01:45:24;97555.53;;;18.07;69.27
51123;BME280;37162;41.724;13.346;2023-12-29T01:47:51;97547.28;;;18.02;69.18
51123;BME280;37162;41.724;13.346;2023-12-29T01:50:19;97554.94;;;18.05;69.25
51123;BME280;37162;41.724;13.346;2023-12-29T01:52:48;97559.25;;;18.06;69.15
51123;BME280;37162;41.724;13.346;2023-12-29T01:55:18;97563.00;;;18.05;69.05
51123;BME280;37162;41.724;13.346;2023-12-29T01:57:44;97560.31;;;18.05;69.38
51123;BME280;37162;41.724;13.346;2023-12-29T02:00:11;97541.59;;;17.92;69.48
51123;BME280;37162;41.724;13.346;2023-12-29T02:02:37;97559.25;;;18.06;69.79
51123;BME280;37162;41.724;13.346;2023-12-29T02:05:03;97560.94;;;18.07;69.87
51123;BME280;37162;41.724;13.346;2023-12-29T02:07:29;97559.25;;;18.06;69.99
51123;BME280;37162;41.724;13.346;2023-12-29T02:09:58;97554.69;;;18.06;70.20
51123;BME280;37162;41.724;13.346;2023-12-29T02:12:23;97548.50;;;18.06;70.02
51123;BME280;37162;41.724;13.346;2023-12-29T02:14:49;97557.63;;;18.05;69.67
51123;BME280;37162;41.724;13.346;2023-12-29T02:17:29;97553.06;;;18.05;69.27
51123;BME280;37162;41.724;13.346;2023-12-29T02:19:57;97548.97;;;18.03;69.09
51123;BME280;37162;41.724;13.346;2023-12-29T02:22:22;97554.34;;;18.03;69.23
51123;BME280;37162;41.724;13.346;2023-12-29T02:24:48;97548.97;;;18.03;69.25
51123;BME280;37162;41.724;13.346;2023-12-29T02:30:00;97522.13;;;17.96;69.21
51123;BME280;37162;41.724;13.346;2023-12-29T02:32:29;97534.06;;;18.00;69.24
51123;BME280;37162;41.724;13.346;2023-12-29T02:34:56;97527.06;;;17.99;69.28
51123;BME280;37162;41.724;13.346;2023-12-29T02:37:23;97528.13;;;17.98;69.29
51123;BME280;37162;41.724;13.346;2023-12-29T02:39:49;97510.16;;;17.92;69.35
51123;BME280;37162;41.724;13.346;2023-12-29T02:42:15;97513.47;;;17.94;69.51
51123;BME280;37162;41.724;13.346;2023-12-29T02:44:40;97514.28;;;17.95;69.53
51123;BME280;37162;41.724;13.346;2023-12-29T02:47:06;97520.25;;;17.97;69.30
51123;BME280;37162;41.724;13.346;2023-12-29T02:49:31;97518.59;;;17.96;69.43
51123;BME280;37162;41.724;13.346;2023-12-29T02:51:57;97502.16;;;17.85;69.38
51123;BME280;37162;41.724;13.346;2023-12-29T02:54:22;97511.59;;;17.95;69.27
51123;BME280;37162;41.724;13.346;2023-12-29T02:56:48;97511.59;;;17.95;69.39
51123;BME280;37162;41.724;13.346;2023-12-29T02:59:13;97508.91;;;17.95;69.34
51123;BME280;37162;41.724;13.346;2023-12-29T03:01:38;97510.53;;;17.96;69.47
51123;BME280;37162;41.724;13.346;2023-12-29T03:04:04;97512.41;;;17.95;69.50
51123;BME280;37162;41.724;13.346;2023-12-29T03:06:29;97508.91;;;17.95;69.81
51123;BME280;37162;41.724;13.346;2023-12-29T03:08:55;97503.53;;;17.95;69.70
51123;BME280;37162;41.724;13.346;2023-12-29T03:11:20;97504.34;;;17.95;69.42
51123;BME280;37162;41.724;13.346;2023-12-29T03:13:46;97505.41;;;17.94;69.30
51123;BME280;37162;41.724;13.346;2023-12-29T03:16:11;97503.53;;;17.95;69.25
51123;BME280;37162;41.724;13.346;2023-12-29T03:18:37;97494.66;;;17.94;69.25
51123;BME280;37162;41.724;13.346;2023-12-29T03:21:05;97492.63;;;17.90;69.14
51123;BME280;37162;41.724;13.346;2023-12-29T03:23:31;97494.25;;;17.91;69.20
51123;BME280;37162;41.724;13.346;2023-12-29T03:25:56;97502.94;;;17.93;69.17
51123;BME280;37162;41.724;13.346;2023-12-29T03:28:22;97507.25;;;17.94;69.21
51123;BME280;37162;41.724;13.346;2023-12-29T03:30:47;97503.53;;;17.95;69.27
51123;BME280;37162;41.724;13.346;2023-12-29T03:33:13;97491.41;;;17.85;69.15
51123;BME280;37162;41.724;13.346;2023-12-29T03:35:38;97497.56;;;17.93;69.29
51123;BME280;37162;41.724;13.346;2023-12-29T03:38:04;97499.19;;;17.94;69.37
51123;BME280;37162;41.724;13.346;2023-12-29T03:40:29;97499.19;;;17.94;69.30
51123;BME280;37162;41.724;13.346;2023-12-29T03:42:54;97493.81;;;17.94;69.35
51123;BME280;37162;41.724;13.346;2023-12-29T03:45:20;97497.56;;;17.93;69.22
51123;BME280;37162;41.724;13.346;2023-12-29T03:47:45;97494.88;;;17.93;69.13
51123;BME280;37162;41.724;13.346;2023-12-29T03:50:11;97500.25;;;17.93;69.29
51123;BME280;37162;41.724;13.346;2023-12-29T03:52:36;97490.50;;;17.92;69.19
51123;BME280;37162;41.724;13.346;2023-12-29T03:55:02;97504.56;;;17.94;69.50
51123;BME280;37162;41.724;13.346;2023-12-29T03:57:27;97500.84;;;17.95;69.87
51123;BME280;37162;41.724;13.346;2023-12-29T03:59:52;97498.97;;;17.95;70.04
51123;BME280;37162;41.724;13.346;2023-12-29T04:02:18;97493.59;;;17.95;70.19
51123;BME280;37162;41.724;13.346;2023-12-29T04:04:43;97498.97;;;17.95;69.98
51123;BME280;37162;41.724;13.346;2023-12-29T04:07:09;97499.78;;;17.96;69.79
51123;BME280;37162;41.724;13.346;2023-12-29T04:09:34;97492.78;;;17.95;69.72
51123;BME280;37162;41.724;13.346;2023-12-29T04:11:59;97498.97;;;17.95;69.30
51123;BME280;37162;41.724;13.346;2023-12-29T04:14:25;97486.84;;;17.86;69.25
51123;BME280;37162;41.724;13.346;2023-12-29T04:16:50;97484.41;;;17.84;69.26
51123;BME280;37162;41.724;13.346;2023-12-29T04:19:16;97498.16;;;17.95;69.13
51123;BME280;37162;41.724;13.346;2023-12-29T04:21:41;97501.50;;;17.90;69.22
51123;BME280;37162;41.724;13.346;2023-12-29T04:24:07;97505.41;;;17.94;69.10
51123;BME280;37162;41.724;13.346;2023-12-29T04:26:36;97505.41;;;17.94;69.17
51123;BME280;37162;41.724;13.346;2023-12-29T04:29:02;97501.06;;;17.93;69.27
51123;BME280;37162;41.724;13.346;2023-12-29T04:31:27;97502.94;;;17.93;69.22
51123;BME280;37162;41.724;13.346;2023-12-29T04:33:53;97500.25;;;17.93;69.21
51123;BME280;37162;41.724;13.346;2023-12-29T04:36:18;97501.25;;;17.92;69.08
51123;BME280;37162;41.724;13.346;2023-12-29T04:38:43;97497.56;;;17.93;69.21
51123;BME280;37162;41.724;13.346;2023-12-29T04:41:11;97493.19;;;17.92;69.10
51123;BME280;37162;41.724;13.346;2023-12-29T04:43:37;97495.06;;;17.91;69.16
51123;BME280;37162;41.724;13.346;2023-12-29T04:46:02;97493.19;;;17.92;69.06
51123;BME280;37162;41.724;13.346;2023-12-29T04:48:28;97495.06;;;17.91;69.26
51123;BME280;37162;41.724;13.346;2023-12-29T04:50:53;97493.44;;;17.90;69.46
51123;BME280;37162;41.724;13.346;2023-12-29T04:53:19;97493.00;;;17.93;69.85
51123;BME280;37162;41.724;13.346;2023-12-29T04:55:44;97475.13;;;17.80;69.93
51123;BME280;37162;41.724;13.346;2023-12-29T04:58:10;97488.44;;;17.94;69.99
51123;BME280;37162;41.724;13.346;2023-12-29T05:00:35;97493.00;;;17.93;70.15
51123;BME280;37162;41.724;13.346;2023-12-29T05:03:01;97495.47;;;17.95;69.94
51123;BME280;37162;41.724;13.346;2023-12-29T05:05:26;97486.19;;;17.91;69.64
51123;BME280;37162;41.724;13.346;2023-12-29T05:07:51;97485.13;;;17.92;69.38
51123;BME280;37162;41.724;13.346;2023-12-29T05:10:17;97493.00;;;17.93;69.36
51123;BME280;37162;41.724;13.346;2023-12-29T05:12:42;97491.13;;;17.94;69.19
51123;BME280;37162;41.724;13.346;2023-12-29T05:15:08;97484.13;;;17.93;69.14
51123;BME280;37162;41.724;13.346;2023-12-29T05:17:33;97486.81;;;17.93;69.05
51123;BME280;37162;41.724;13.346;2023-12-29T05:19:59;97481.03;;;17.89;69.25
51123;BME280;37162;41.724;13.346;2023-12-29T05:22:24;97482.44;;;17.92;69.19
51123;BME280;37162;41.724;13.346;2023-12-29T05:24:49;97471.38;;;17.81;69.26
51123;BME280;37162;41.724;13.346;2023-12-29T05:27:15;97485.13;;;17.92;69.10
51123;BME280;37162;41.724;13.346;2023-12-29T05:29:41;97487.81;;;17.92;69.17
51123;BME280;37162;41.724;13.346;2023-12-29T05:32:07;97491.56;;;17.91;69.03
51123;BME280;37162;41.724;13.346;2023-12-29T05:34:32;97491.78;;;17.89;69.17
51123;BME280;37162;41.724;13.346;2023-12-29T05:36:57;97495.31;;;17.90;69.05
51123;BME280;37162;41.724;13.346;2023-12-29T05:39:23;97492.63;;;17.90;69.15
51123;BME280;37162;41.724;13.346;2023-12-29T05:41:49;97494.69;;;17.87;69.04
51123;BME280;37162;41.724;13.346;2023-12-29T05:44:15;97505.44;;;17.87;69.06
51123;BME280;37162;41.724;13.346;2023-12-29T05:46:41;97502.97;;;17.86;69.17
51123;BME280;37162;41.724;13.346;2023-12-29T05:49:06;97507.09;;;17.88;69.22
51123;BME280;37162;41.724;13.346;2023-12-29T05:51:31;97505.25;;;17.89;69.29
51123;BME280;37162;41.724;13.346;2023-12-29T05:53:57;97509.78;;;17.88;69.37
51123;BME280;37162;41.724;13.346;2023-12-29T05:56:22;97497.69;;;17.79;69.35
51123;BME280;37162;41.724;13.346;2023-12-29T05:58:48;97516.19;;;17.87;69.14
51123;BME280;37162;41.724;13.346;2023-12-29T06:01:13;97502.75;;;17.87;69.09
51123;BME280;37162;41.724;13.346;2023-12-29T06:03:38;97503.78;;;17.86;69.23
51123;BME280;37162;41.724;13.346;2023-12-29T06:06:04;97510.22;;;17.85;69.27
51123;BME280;37162;41.724;13.346;2023-12-29T06:08:29;97515.59;;;17.85;69.35
51123;BME280;37162;41.724;13.346;2023-12-29T06:10:55;97505.28;;;17.82;69.35
51123;BME280;37162;41.724;13.346;2023-12-29T06:13:20;97507.38;;;17.80;69.29
51123;BME280;37162;41.724;13.346;2023-12-29T06:15:46;97517.31;;;17.80;69.24
51123;BME280;37162;41.724;13.346;2023-12-29T06:18:11;97511.94;;;17.80;69.37
51123;BME280;37162;41.724;13.346;2023-12-29T06:20:37;97514.81;;;17.78;69.24
51123;BME280;37162;41.724;13.346;2023-12-29T06:23:02;97516.69;;;17.78;69.19
51123;BME280;37162;41.724;13.346;2023-12-29T06:25:28;97492.53;;;17.71;69.04
51123;BME280;37162;41.724;13.346;2023-12-29T06:27:53;97510.50;;;17.77;69.25
51123;BME280;37162;41.724;13.346;2023-12-29T06:30:19;97501.59;;;17.77;69.13
51123;BME280;37162;41.724;13.346;2023-12-29T06:32:45;97508.84;;;17.76;69.10
51123;BME280;37162;41.724;13.346;2023-12-29T06:35:10;97504.53;;;17.75;69.24
51123;BME280;37162;41.724;13.346;2023-12-29T06:37:40;97499.16;;;17.75;69.10
51123;BME280;37162;41.724;13.346;2023-12-29T06:40:06;97481.00;;;17.64;69.03
51123;BME280;37162;41.724;13.346;2023-12-29T06:42:32;97499.97;;;17.76;69.10
51123;BME280;37162;41.724;13.346;2023-12-29T06:44:58;97509.91;;;17.75;69.10
51123;BME280;37162;41.724;13.346;2023-12-29T06:47:23;97505.34;;;17.76;68.90
51123;BME280;37162;41.724;13.346;2023-12-29T06:49:49;97502.22;;;17.72;69.05
51123;BME280;37162;41.724;13.346;2023-12-29T06:52:16;97502.44;;;17.77;69.06
51123;BME280;37162;41.724;13.346;2023-12-29T06:54:41;97492.53;;;17.71;69.20
51123;BME280;37162;41.724;13.346;2023-12-29T06:57:07;97503.03;;;17.79;69.00
51123;BME280;37162;41.724;13.346;2023-12-29T06:59:32;97500.34;;;17.79;68.86
51123;BME280;37162;41.724;13.346;2023-12-29T07:01:57;97496.63;;;17.80;68.65
51123;BME280;37162;41.724;13.346;2023-12-29T07:04:23;97491.09;;;17.75;68.70
51123;BME280;37162;41.724;13.346;2023-12-29T07:06:48;97507.38;;;17.80;68.66
51123;BME280;37162;41.724;13.346;2023-12-29T07:09:14;97508.19;;;17.81;68.71
51123;BME280;37162;41.724;13.346;2023-12-29T07:11:40;97508.19;;;17.81;68.66
51123;BME280;37162;41.724;13.346;2023-12-29T07:14:05;97507.16;;;17.82;68.59
51123;BME280;37162;41.724;13.346;2023-12-29T07:16:30;97500.72;;;17.83;68.54
51123;BME280;37162;41.724;13.346;2023-12-29T07:18:56;97508.59;;;17.84;68.59
51123;BME280;37162;41.724;13.346;2023-12-29T07:21:21;97504.03;;;17.85;68.45
51123;BME280;37162;41.724;13.346;2023-12-29T07:23:47;97502.16;;;17.85;68.41
51123;BME280;37162;41.724;13.346;2023-12-29T07:26:12;97493.13;;;17.80;68.44
51123;BME280;37162;41.724;13.346;2023-12-29T07:28:37;97501.94;;;17.87;68.41
51123;BME280;37162;41.724;13.346;2023-12-29T07:31:03;97504.41;;;17.88;68.33
51123;BME280;37162;41.724;13.346;2023-12-29T07:33:30;97495.31;;;17.90;68.36
51123;BME280;37162;41.724;13.346;2023-12-29T07:35:55;97492.00;;;17.87;68.13
51123;BME280;37162;41.724;13.346;2023-12-29T07:38:21;97495.31;;;17.90;68.11
51123;BME280;37162;41.724;13.346;2023-12-29T07:40:46;97497.75;;;17.91;68.07
51123;BME280;37162;41.724;13.346;2023-12-29T07:43:13;97480.88;;;17.84;68.04
51123;BME280;37162;41.724;13.346;2023-12-29T07:45:39;97501.25;;;17.92;68.17
51123;BME280;37162;41.724;13.346;2023-12-29T07:48:05;97499.41;;;17.92;68.16
51123;BME280;37162;41.724;13.346;2023-12-29T07:50:31;97504.78;;;17.92;68.33
51123;BME280;37162;41.724;13.346;2023-12-29T07:52:56;97501.06;;;17.93;68.38
51123;BME280;37162;41.724;13.346;2023-12-29T07:55:22;97500.25;;;17.93;68.37
51123;BME280;37162;41.724;13.346;2023-12-29T07:57:47;97501.88;;;17.94;68.13
51123;BME280;37162;41.724;13.346;2023-12-29T08:00:16;97494.53;;;17.82;67.52
51123;BME280;37162;41.724;13.346;2023-12-29T08:02:42;97501.50;;;17.90;67.36
51123;BME280;37162;41.724;13.346;2023-12-29T08:05:08;97507.09;;;17.88;66.45
51123;BME280;37162;41.724;13.346;2023-12-29T08:07:34;97508.97;;;17.88;66.21
51123;BME280;37162;41.724;13.346;2023-12-29T08:10:00;97504.63;;;17.87;66.14
51123;BME280;37162;41.724;13.346;2023-12-29T08:12:26;97500.94;;;17.81;66.07
51123;BME280;37162;41.724;13.346;2023-12-29T08:14:53;97504.25;;;17.83;66.22
51123;BME280;37162;41.724;13.346;2023-12-29T08:17:18;97510.81;;;17.87;66.25
51123;BME280;37162;41.724;13.346;2023-12-29T08:19:44;97509.78;;;17.88;66.24
51123;BME280;37162;41.724;13.346;2023-12-29T08:22:09;97512.25;;;17.90;66.16
51123;BME280;37162;41.724;13.346;2023-12-29T08:24:35;97504.41;;;17.88;66.32
51123;BME280;37162;41.724;13.346;2023-12-29T08:27:00;97522.56;;;17.93;66.18
51123;BME280;37162;41.724;13.346;2023-12-29T08:29:26;97515.91;;;17.96;66.35
51123;BME280;37162;41.724;13.346;2023-12-29T08:31:51;97510.53;;;17.96;66.31
51123;BME280;37162;41.724;13.346;2023-12-29T08:34:17;97524.97;;;18.01;66.29
51123;BME280;37162;41.724;13.346;2023-12-29T08:36:42;97509.94;;;17.94;65.90
51123;BME280;37162;41.724;13.346;2023-12-29T08:39:08;97526.16;;;18.05;63.66
51123;BME280;37162;41.724;13.346;2023-12-29T08:41:34;97524.97;;;18.01;63.00
51123;BME280;37162;41.724;13.346;2023-12-29T08:44:00;97536.25;;;18.10;64.00
51123;BME280;37162;41.724;13.346;2023-12-29T08:46:26;97505.31;;;18.01;62.79
51123;BME280;37162;41.724;13.346;2023-12-29T08:48:51;97539.25;;;18.20;62.74
51123;BME280;37162;41.724;13.346;2023-12-29T08:51:17;97532.25;;;18.19;62.97
51123;BME280;37162;41.724;13.346;2023-12-29T08:53:42;97547.88;;;18.29;63.32
51123;BME280;37162;41.724;13.346;2023-12-29T08:56:07;97550.13;;;18.32;63.77
51123;BME280;37162;41.724;13.346;2023-12-29T08:58:33;97555.06;;;18.35;63.99
51123;BME280;37162;41.724;13.346;2023-12-29T09:00:58;97556.72;;;18.36;64.10
51123;BME280;37162;41.724;13.346;2023-12-29T09:03:24;97555.66;;;18.37;63.96
51123;BME280;37162;41.724;13.346;2023-12-29T09:05:50;97556.25;;;18.39;63.94
51123;BME280;37162;41.724;13.346;2023-12-29T09:08:15;97559.75;;;18.39;63.82
51123;BME280;37162;41.724;13.346;2023-12-29T09:10:40;97558.28;;;18.44;64.13
51123;BME280;37162;41.724;13.346;2023-12-29T09:13:06;97567.56;;;18.48;64.30
51123;BME280;37162;41.724;13.346;2023-12-29T09:15:32;97551.09;;;18.37;64.53
51123;BME280;37162;41.724;13.346;2023-12-29T09:17:57;97566.28;;;18.50;64.69
51123;BME280;37162;41.724;13.346;2023-12-29T09:20:23;97563.38;;;18.52;64.76
51123;BME280;37162;41.724;13.346;2023-12-29T09:22:48;97565.84;;;18.53;64.73
51123;BME280;37162;41.724;13.346;2023-12-29T09:25:14;97552.91;;;18.44;65.02
51123;BME280;37162;41.724;13.346;2023-12-29T09:27:39;97566.22;;;18.57;64.98
51123;BME280;37162;41.724;13.346;2023-12-29T09:30:05;97564.97;;;18.59;64.76
51123;BME280;37162;41.724;13.346;2023-12-29T09:32:31;97566.16;;;18.63;65.03
51123;BME280;37162;41.724;13.346;2023-12-29T09:34:56;97544.78;;;18.50;63.43
51123;BME280;37162;41.724;13.346;2023-12-29T09:37:22;97557.94;;;18.58;62.76
51123;BME280;37162;41.724;13.346;2023-12-29T09:39:48;97541.03;;;18.51;62.47
51123;BME280;37162;41.724;13.346;2023-12-29T09:42:19;97556.66;;;18.61;62.31
51123;BME280;37162;41.724;13.346;2023-12-29T09:44:49;97560.78;;;18.63;62.20
51123;BME280;37162;41.724;13.346;2023-12-29T09:47:22;97552.72;;;18.63;62.35
51123;BME280;37162;41.724;13.346;2023-12-29T09:49:51;97544.63;;;18.63;63.09
51123;BME280;37162;41.724;13.346;2023-12-29T09:52:19;97559.00;;;18.76;63.44
51123;BME280;37162;41.724;13.346;2023-12-29T09:54:46;97545.09;;;18.79;63.86
51123;BME280;37162;41.724;13.346;2023-12-29T09:57:12;97548.16;;;18.82;64.02
51123;BME280;37162;41.724;13.346;2023-12-29T09:59:38;97542.78;;;18.82;64.54
51123;BME280;37162;41.724;13.346;2023-12-29T10:02:12;97535.44;;;18.89;64.51
51123;BME280;37162;41.724;13.346;2023-12-29T10:04:40;97540.97;;;18.95;65.07
51123;BME280;37162;41.724;13.346;2023-12-29T10:07:06;97531.91;;;18.89;64.89
51123;BME280;37162;41.724;13.346;2023-12-29T10:09:34;97540.66;;;19.03;64.64
51123;BME280;37162;41.724;13.346;2023-12-29T10:12:02;97550.13;;;19.05;64.73
51123;BME280;37162;41.724;13.346;2023-12-29T10:14:37;97540.78;;;19.08;64.43
51123;BME280;37162;41.724;13.346;2023-12-29T10:20:15;97537.16;;;19.02;62.25
51123;BME280;37162;41.724;13.346;2023-12-29T10:22:51;97527.63;;;19.00;62.59
51123;BME280;37162;41.724;13.346;2023-12-29T10:25:22;97520.22;;;18.95;63.05
51123;BME280;37162;41.724;13.346;2023-12-29T10:27:48;97495.50;;;18.86;63.35
51123;BME280;37162;41.724;13.346;2023-12-29T10:30:14;97508.19;;;18.98;63.42
51123;BME280;37162;41.724;13.346;2023-12-29T10:32:40;97505.50;;;18.98;63.64
51123;BME280;37162;41.724;13.346;2023-12-29T10:35:09;97503.63;;;18.98;63.55
51123;BME280;37162;41.724;13.346;2023-12-29T10:37:36;97498.25;;;18.98;63.45
51123;BME280;37162;41.724;13.346;2023-12-29T10:40:03;97492.88;;;18.98;63.58
51123;BME280;37162;41.724;13.346;2023-12-29T10:42:29;97472.69;;;18.89;63.67
51123;BME280;37162;41.724;13.346;2023-12-29T10:45:05;97483.34;;;18.96;62.12
51123;BME280;37162;41.724;13.346;2023-12-29T10:47:32;97485.03;;;18.97;62.58
51123;BME280;37162;41.724;13.346;2023-12-29T10:49:59;97485.03;;;18.97;62.83
51123;BME280;37162;41.724;13.346;2023-12-29T10:52:25;97479.63;;;18.97;62.88
51123;BME280;37162;41.724;13.346;2023-12-29T10:55:04;97475.50;;;18.94;60.89
51123;BME280;37162;41.724;13.346;2023-12-29T10:57:30;97470.38;;;18.93;61.89
51123;BME280;37162;41.724;13.346;2023-12-29T10:59:55;97461.22;;;18.94;62.78
51123;BME280;37162;41.724;13.346;2023-12-29T11:02:21;97463.56;;;18.90;62.58
51123;BME280;37162;41.724;13.346;2023-12-29T11:04:47;97458.03;;;18.85;61.42
51123;BME280;37162;41.724;13.346;2023-12-29T11:07:13;97447.94;;;18.80;60.44
51123;BME280;37162;41.724;13.346;2023-12-29T11:09:38;97455.22;;;18.80;60.62
51123;BME280;37162;41.724;13.346;2023-12-29T11:12:04;97445.50;;;18.79;60.76
51123;BME280;37162;41.724;13.346;2023-12-29T11:14:33;97440.34;;;18.77;60.37
51123;BME280;37162;41.724;13.346;2023-12-29T11:17:00;97435.41;;;18.74;59.39
51123;BME280;37162;41.724;13.346;2023-12-29T11:19:29;97421.16;;;18.67;58.97
51123;BME280;37162;41.724;13.346;2023-12-29T11:21:55;97428.00;;;18.70;56.41
51123;BME280;37162;41.724;13.346;2023-12-29T11:24:21;97422.84;;;18.68;55.84
51123;BME280;37162;41.724;13.346;2023-12-29T11:26:51;97419.13;;;18.69;57.10
51123;BME280;37162;41.724;13.346;2023-12-29T11:29:16;97418.13;;;18.63;56.33
51123;BME280;37162;41.724;13.346;2023-12-29T11:31:43;97416.25;;;18.64;57.40
51123;BME280;37162;41.724;13.346;2023-12-29T11:34:23;97403.13;;;18.56;57.38
51123;BME280;37162;41.724;13.346;2023-12-29T11:36:55;97414.97;;;18.67;57.76
51123;BME280;37162;41.724;13.346;2023-12-29T11:39:50;97404.97;;;18.74;57.86
51123;BME280;37162;41.724;13.346;2023-12-29T11:42:21;97396.44;;;18.77;57.43
51123;BME280;37162;41.724;13.346;2023-12-29T11:44:48;97389.19;;;18.77;57.39
51123;BME280;37162;41.724;13.346;2023-12-29T11:47:34;97394.91;;;18.81;57.72
51123;BME280;37162;41.724;13.346;2023-12-29T11:50:01;97392.22;;;18.81;57.53
51123;BME280;37162;41.724;13.346;2023-12-29T11:52:38;97393.53;;;18.78;57.66
51123;BME280;37162;41.724;13.346;2023-12-29T11:55:11;97382.84;;;18.72;58.02
51123;BME280;37162;41.724;13.346;2023-12-29T11:57:36;97389.66;;;18.74;58.34
51123;BME280;37162;41.724;13.346;2023-12-29T12:00:04;97387.19;;;18.73;58.07
51123;BME280;37162;41.724;13.346;2023-12-29T12:02:32;97388.47;;;18.70;58.48
51123;BME280;37162;41.724;13.346;2023-12-29T12:04:58;97384.13;;;18.69;58.35
51123;BME280;37162;41.724;13.346;2023-12-29T12:09:49;97380.66;;;18.62;58.04
51123;BME280;37162;41.724;13.346;2023-12-29T12:12:40;97375.75;;;18.59;58.04
51123;BME280;37162;41.724;13.346;2023-12-29T12:17:54;97378.75;;;18.51;58.37
51123;BME280;37162;41.724;13.346;2023-12-29T12:20:20;97358.97;;;18.45;59.53
51123;BME280;37162;41.724;13.346;2023-12-29T12:22:49;97348.06;;;18.40;61.63
51123;BME280;37162;41.724;13.346;2023-12-29T12:25:15;97365.47;;;18.37;58.91
51123;BME280;37162;41.724;13.346;2023-12-29T12:27:41;97366.38;;;18.31;59.99
51123;BME280;37162;41.724;13.346;2023-12-29T12:30:08;97363.56;;;18.26;60.40
51123;BME280;37162;41.724;13.346;2023-12-29T12:32:35;97359.00;;;18.27;60.96
51123;BME280;37162;41.724;13.346;2023-12-29T12:35:01;97359.22;;;18.25;61.90
51123;BME280;37162;41.724;13.346;2023-12-29T12:37:28;97348.16;;;18.15;62.55
51123;BME280;37162;41.724;13.346;2023-12-29T12:39:54;97357.81;;;18.23;63.02
51123;BME280;37162;41.724;13.346;2023-12-29T12:42:20;97346.28;;;18.16;63.57
51123;BME280;37162;41.724;13.346;2023-12-29T12:47:27;97346.53;;;18.14;63.33
51123;BME280;37162;41.724;13.346;2023-12-29T12:49:56;97342.22;;;18.13;63.60
51123;BME280;37162;41.724;13.346;2023-12-29T12:52:22;97340.78;;;18.10;63.79
51123;BME280;37162;41.724;13.346;2023-12-29T12:54:47;97342.88;;;18.08;63.92
51123;BME280;37162;41.724;13.346;2023-12-29T12:57:18;97329.50;;;18.02;64.12
51123;BME280;37162;41.724;13.346;2023-12-29T12:59:43;97334.44;;;18.05;64.19